createdAt,value
2018-03-23T00:01:33.300Z,50.90
2018-03-23T00:04:01.564Z,50.53
2018-03-23T00:06:31.523Z,50.15
2018-03-23T00:08:59.906Z,52.10
2018-03-23T00:11:28.205Z,47.13
2018-03-23T00:13:56.474Z,49.42
2018-03-23T00:16:24.744Z,46.37
2018-03-23T00:18:53.008Z,44.00
2018-03-23T00:21:21.295Z,45.90
2018-03-23T00:23:49.695Z,50.50
2018-03-23T00:26:18.004Z,42.88
2018-03-23T00:28:46.311Z,48.40
2018-03-23T00:31:15.253Z,42.70
2018-03-23T00:33:43.722Z,47.15
2018-03-23T00:36:11.967Z,46.37
2018-03-23T00:38:40.268Z,52.17
2018-03-23T00:41:08.527Z,47.53
2018-03-23T00:43:36.832Z,53.05
2018-03-23T00:46:05.104Z,52.62
2018-03-23T00:48:34.157Z,53.47
2018-03-23T00:51:06.554Z,48.87
2018-03-23T00:53:34.819Z,52.28
2018-03-23T00:56:03.190Z,42.28
2018-03-23T00:58:31.445Z,46.20
2018-03-23T01:00:59.711Z,43.50
2018-03-23T01:03:27.974Z,46.10
2018-03-23T01:05:57.072Z,50.05
2018-03-23T01:08:26.286Z,54.53
2018-03-23T01:10:54.560Z,54.28
2018-03-23T01:13:22.834Z,51.88
2018-03-23T01:15:51.082Z,56.40
2018-03-23T01:18:20.142Z,56.70
2018-03-23T01:20:48.418Z,51.30
2018-03-23T01:23:16.667Z,63.38
2018-03-23T01:25:45.046Z,58.80
2018-03-23T01:28:13.404Z,61.55
2018-03-23T01:30:41.742Z,59.17
2018-03-23T01:33:10.002Z,57.85
2018-03-23T01:35:38.275Z,56.65
2018-03-23T01:38:06.559Z,59.85
2018-03-23T01:40:34.849Z,54.95
2018-03-23T01:43:03.140Z,61.70
2018-03-23T01:45:32.335Z,56.78
2018-03-23T01:48:01.431Z,62.35
2018-03-23T01:50:30.464Z,61.85
2018-03-23T01:52:58.822Z,66.70
2018-03-23T01:55:27.990Z,56.22
2018-03-23T01:57:57.138Z,61.65
2018-03-23T02:00:25.416Z,59.00
2018-03-23T02:02:53.677Z,67.30
2018-03-23T02:05:21.947Z,59.65
2018-03-23T02:07:54.538Z,67.37
2018-03-23T02:10:23.488Z,72.72
2018-03-23T02:12:55.764Z,64.50
2018-03-23T02:15:24.062Z,71.72
2018-03-23T02:17:52.348Z,70.50
2018-03-23T02:20:21.435Z,74.43
2018-03-23T02:22:49.724Z,70.10
2018-03-23T02:25:17.987Z,80.93
2018-03-23T02:27:46.273Z,89.25
2018-03-23T02:30:14.572Z,76.62
2018-03-23T02:32:43.019Z,75.30
2018-03-23T02:35:11.305Z,73.97
2018-03-23T02:37:39.628Z,68.50
2018-03-23T02:40:09.956Z,74.35
2018-03-23T02:42:38.241Z,85.95
2018-03-23T02:45:07.277Z,70.10
2018-03-23T02:47:35.559Z,72.43
2018-03-23T02:50:03.917Z,77.40
2018-03-23T02:52:32.167Z,78.95
2018-03-23T02:55:00.478Z,70.97
2018-03-23T02:57:28.740Z,67.45
2018-03-23T02:59:57.120Z,71.75
2018-03-23T03:02:25.398Z,80.65
2018-03-23T03:04:53.773Z,69.20
2018-03-23T03:07:22.043Z,74.65
2018-03-23T03:09:50.450Z,68.30
2018-03-23T03:12:18.912Z,68.80
2018-03-23T03:14:47.188Z,69.12
2018-03-23T03:17:15.467Z,71.87
2018-03-23T03:19:43.917Z,73.28
2018-03-23T03:22:12.200Z,72.50
2018-03-23T03:24:40.472Z,66.47
2018-03-23T03:27:08.750Z,59.28
2018-03-23T03:29:37.039Z,69.60
2018-03-23T03:32:05.297Z,68.07
2018-03-23T03:34:33.590Z,59.28
2018-03-23T03:37:01.866Z,62.58
2018-03-23T03:39:30.149Z,67.07
2018-03-23T03:41:58.434Z,65.15
2018-03-23T03:44:26.691Z,66.05
2018-03-23T03:46:55.614Z,63.85
2018-03-23T03:49:23.887Z,68.75
2018-03-23T03:51:52.170Z,66.65
2018-03-23T03:54:21.192Z,67.20
2018-03-23T03:56:49.471Z,78.15
2018-03-23T03:59:17.731Z,65.07
2018-03-23T04:01:46.009Z,65.65
2018-03-23T04:04:14.282Z,65.28
2018-03-23T04:06:42.563Z,67.12
2018-03-23T04:09:10.849Z,63.38
2018-03-23T04:11:39.139Z,78.43
2018-03-23T04:14:07.450Z,75.37
2018-03-23T04:16:35.716Z,75.18
2018-03-23T04:19:04.139Z,75.85
2018-03-23T04:21:32.463Z,75.03
2018-03-23T04:24:00.745Z,73.97
2018-03-23T04:26:29.025Z,60.90
2018-03-23T04:28:57.300Z,63.03
2018-03-23T04:31:25.595Z,60.70
2018-03-23T04:33:53.891Z,61.05
2018-03-23T04:36:22.330Z,61.63
2018-03-23T04:38:50.579Z,60.00
2018-03-23T04:41:18.940Z,55.95
2018-03-23T04:43:47.356Z,46.58
2018-03-23T04:46:15.610Z,45.28
2018-03-23T04:48:43.877Z,52.55
2018-03-23T04:51:12.156Z,48.87
2018-03-23T04:53:40.480Z,43.20
2018-03-23T04:56:09.557Z,38.80
2018-03-23T04:58:37.878Z,40.33
2018-03-23T05:01:06.162Z,38.33
2018-03-23T05:03:34.463Z,40.53
2018-03-23T05:06:02.727Z,37.38
2018-03-23T05:08:30.986Z,40.53
2018-03-23T05:10:59.947Z,39.72
2018-03-23T05:13:29.014Z,42.80
2018-03-23T05:15:57.264Z,41.45
2018-03-23T05:18:25.742Z,47.58
2018-03-23T05:20:54.009Z,49.42
2018-03-23T05:23:22.342Z,39.53
2018-03-23T05:25:51.378Z,44.33
2018-03-23T05:28:19.645Z,43.20
2018-03-23T05:30:47.959Z,39.58
2018-03-23T05:33:16.275Z,41.13
2018-03-23T05:35:44.568Z,39.20
2018-03-23T05:38:12.835Z,40.83
2018-03-23T05:40:41.291Z,38.25
2018-03-23T05:43:09.568Z,46.25
2018-03-23T05:45:38.624Z,40.10
2018-03-23T05:48:07.018Z,43.13
2018-03-23T05:50:36.906Z,43.17
2018-03-23T05:53:05.229Z,43.35
2018-03-23T05:55:34.344Z,44.15
2018-03-23T05:58:02.621Z,45.10
2018-03-23T06:00:30.893Z,41.03
2018-03-23T06:02:59.955Z,50.03
2018-03-23T06:05:29.075Z,52.10
2018-03-23T06:07:58.176Z,50.15
2018-03-23T06:10:26.470Z,48.72
2018-03-23T06:12:54.753Z,49.08
2018-03-23T06:15:23.777Z,53.80
2018-03-23T06:17:52.258Z,50.88
2018-03-23T06:20:20.598Z,61.85
2018-03-23T06:22:48.913Z,54.47
2018-03-23T06:25:17.390Z,55.15
2018-03-23T06:27:45.753Z,50.60
2018-03-23T06:30:14.081Z,43.63
2018-03-23T06:32:42.610Z,53.53
2018-03-23T06:35:10.992Z,52.00
2018-03-23T06:37:39.252Z,60.05
2018-03-23T06:40:07.526Z,56.72
2018-03-23T06:42:35.803Z,50.90
2018-03-23T06:45:04.079Z,49.13
2018-03-23T06:47:32.344Z,47.50
2018-03-23T06:50:00.855Z,59.65
2018-03-23T06:52:29.107Z,51.70
2018-03-23T06:54:57.701Z,53.92
2018-03-23T06:57:26.028Z,55.65
2018-03-23T06:59:54.903Z,58.87
2018-03-23T07:02:23.333Z,56.17
2018-03-23T07:04:51.606Z,56.97
2018-03-23T07:07:19.889Z,48.28
2018-03-23T07:09:49.052Z,48.83
2018-03-23T07:12:17.458Z,94.53
2018-03-23T07:14:46.235Z,93.35
2018-03-23T07:17:14.517Z,62.05
2018-03-23T07:19:42.813Z,48.33
2018-03-23T07:22:11.120Z,89.60
2018-03-23T07:24:40.246Z,50.25
2018-03-23T07:27:08.528Z,50.95
2018-03-23T07:29:37.042Z,52.40
2018-03-23T07:32:07.180Z,47.47
2018-03-23T07:34:36.216Z,37.65
2018-03-23T07:37:04.659Z,34.55
2018-03-23T07:39:33.899Z,35.60
2018-03-23T07:42:02.242Z,36.35
2018-03-23T07:44:30.625Z,35.78
2018-03-23T07:46:58.919Z,39.72
2018-03-23T07:49:27.207Z,39.85
2018-03-23T07:51:55.548Z,36.28
2018-03-23T07:54:24.733Z,36.60
2018-03-23T07:56:53.841Z,39.47
2018-03-23T07:59:22.126Z,34.55
2018-03-23T08:01:50.388Z,39.58
2018-03-23T08:04:19.472Z,41.05
2018-03-23T08:06:48.700Z,41.88
2018-03-23T08:09:16.980Z,48.33
2018-03-23T08:11:45.256Z,43.78
2018-03-23T08:14:13.533Z,42.47
2018-03-23T08:16:41.809Z,45.58
2018-03-23T08:19:10.255Z,42.38
2018-03-23T08:21:38.566Z,52.50
2018-03-23T08:24:06.836Z,37.08
2018-03-23T08:26:35.181Z,46.75
2018-03-23T08:29:03.462Z,47.13
2018-03-23T08:31:32.510Z,47.17
2018-03-23T08:34:00.783Z,44.15
2018-03-23T08:36:29.210Z,45.92
2018-03-23T08:38:57.624Z,40.47
2018-03-23T08:41:25.902Z,46.22
2018-03-23T08:43:54.507Z,43.67
2018-03-23T08:48:58.104Z,39.05
2018-03-23T08:51:26.370Z,40.95
2018-03-23T08:53:54.643Z,41.20
2018-03-23T08:56:22.924Z,52.08
2018-03-23T08:58:51.188Z,36.20
2018-03-23T09:01:19.506Z,37.03
2018-03-23T09:03:48.559Z,45.05
2018-03-23T09:06:17.820Z,41.15
2018-03-23T09:08:46.113Z,50.22
2018-03-23T09:11:14.599Z,40.22
2018-03-23T09:13:42.882Z,44.28
2018-03-23T09:16:11.168Z,42.30
2018-03-23T09:18:39.709Z,41.20
2018-03-23T09:21:08.059Z,43.47
2018-03-23T09:23:36.364Z,35.60
2018-03-23T09:26:04.680Z,34.88
2018-03-23T09:28:32.991Z,59.33
2018-03-23T09:31:01.279Z,47.10
2018-03-23T09:33:30.621Z,111.10
2018-03-23T09:35:58.897Z,52.67
2018-03-23T09:38:27.181Z,64.82
2018-03-23T09:40:55.454Z,47.17
2018-03-23T09:43:23.765Z,47.62
2018-03-23T09:45:52.052Z,43.80
2018-03-23T09:48:20.599Z,50.60
2018-03-23T09:50:48.862Z,51.05
2018-03-23T09:53:17.125Z,44.00
2018-03-23T09:55:45.421Z,46.53
2018-03-23T09:58:13.681Z,38.78
2018-03-23T10:00:42.222Z,43.60
2018-03-23T10:03:11.352Z,45.58
2018-03-23T10:05:40.008Z,43.15
2018-03-23T10:08:08.313Z,45.95
2018-03-23T10:10:36.595Z,47.03
2018-03-23T10:13:04.864Z,37.40
2018-03-23T10:15:34.411Z,41.50
2018-03-23T10:18:02.667Z,36.90
2018-03-23T10:20:31.224Z,32.65
2018-03-23T10:22:59.501Z,30.42
2018-03-23T10:25:27.880Z,38.50
2018-03-23T10:27:56.158Z,35.30
2018-03-23T10:30:24.433Z,37.80
2018-03-23T10:32:52.701Z,37.00
2018-03-23T10:35:20.999Z,38.00
2018-03-23T10:37:49.348Z,39.85
2018-03-23T10:40:17.632Z,33.47
2018-03-23T10:42:46.324Z,26.85
2018-03-23T10:45:14.903Z,26.12
2018-03-23T10:47:43.178Z,33.13
2018-03-23T10:50:12.376Z,30.58
2018-03-23T10:52:40.698Z,35.75
2018-03-23T10:55:08.919Z,33.17
2018-03-23T10:57:37.191Z,30.55
2018-03-23T11:00:05.472Z,34.70
2018-03-23T11:02:43.833Z,30.08
2018-03-23T11:05:12.868Z,32.42
2018-03-23T11:07:41.154Z,28.83
2018-03-23T11:10:09.698Z,27.98
2018-03-23T11:12:38.099Z,25.75
2018-03-23T11:15:06.416Z,27.48
2018-03-23T11:17:34.732Z,27.37
2018-03-23T11:20:03.107Z,21.58
2018-03-23T11:22:32.229Z,20.05
2018-03-23T11:25:00.526Z,20.52
2018-03-23T11:27:28.792Z,22.10
2018-03-23T11:29:57.069Z,22.80
2018-03-23T11:32:25.343Z,21.40
2018-03-23T11:34:53.619Z,25.08
2018-03-23T11:37:21.899Z,25.20
2018-03-23T11:39:50.203Z,22.90
2018-03-23T11:42:19.243Z,22.37
2018-03-23T11:44:47.525Z,26.33
2018-03-23T11:47:15.800Z,26.80
2018-03-23T11:49:44.230Z,21.58
2018-03-23T11:52:12.648Z,20.73
2018-03-23T11:54:40.926Z,17.92
2018-03-23T11:57:09.403Z,19.10
2018-03-23T11:59:37.729Z,18.77
2018-03-23T12:02:06.080Z,20.02
2018-03-23T12:04:34.320Z,22.75
2018-03-23T12:07:02.633Z,28.15
2018-03-23T12:09:31.043Z,33.05
2018-03-23T12:12:00.185Z,28.80
2018-03-23T12:14:28.464Z,26.33
2018-03-23T12:16:56.779Z,22.23
2018-03-23T12:19:25.056Z,24.27
2018-03-23T12:21:53.334Z,24.42
2018-03-23T12:24:22.381Z,24.77
2018-03-23T12:26:50.658Z,25.17
2018-03-23T12:29:18.963Z,25.70
2018-03-23T12:31:47.266Z,24.25
2018-03-23T12:36:51.050Z,24.85
2018-03-23T12:39:19.337Z,25.70
2018-03-23T12:41:47.608Z,33.83
2018-03-23T12:44:15.902Z,25.23
2018-03-23T12:46:45.285Z,28.05
2018-03-23T12:49:14.585Z,29.48
2018-03-23T12:51:42.864Z,23.23
2018-03-23T12:54:11.156Z,23.90
2018-03-23T12:56:40.475Z,23.08
2018-03-23T12:59:08.783Z,27.48
2018-03-23T13:01:37.070Z,25.12
2018-03-23T13:04:05.363Z,25.85
2018-03-23T13:06:33.634Z,25.90
2018-03-23T13:09:03.018Z,25.80
2018-03-23T13:11:31.375Z,25.62
2018-03-23T13:13:59.652Z,25.15
2018-03-23T13:16:28.084Z,27.58
2018-03-23T13:18:57.196Z,27.48
2018-03-23T13:21:26.449Z,25.15
2018-03-23T13:23:54.829Z,26.58
2018-03-23T13:26:23.103Z,26.27
2018-03-23T13:28:51.584Z,23.90
2018-03-23T13:31:20.138Z,27.27
2018-03-23T13:33:48.773Z,29.52
2018-03-23T13:36:17.820Z,30.80
2018-03-23T13:38:46.544Z,31.65
2018-03-23T13:41:14.835Z,37.60
2018-03-23T13:43:43.163Z,33.58
2018-03-23T13:46:11.574Z,29.85
2018-03-23T13:48:40.640Z,28.98
2018-03-23T13:51:08.909Z,32.22
2018-03-23T13:53:37.238Z,32.47
2018-03-23T13:56:06.514Z,33.30
2018-03-23T13:58:41.074Z,29.17
2018-03-23T14:04:10.093Z,26.23
2018-03-23T14:06:38.390Z,26.77
2018-03-23T14:09:06.730Z,26.95
2018-03-23T14:11:35.359Z,26.85
2018-03-23T14:14:03.571Z,27.98
2018-03-23T14:16:32.689Z,26.35
2018-03-23T14:19:00.978Z,27.80
2018-03-23T14:21:29.317Z,26.08
2018-03-23T14:23:58.589Z,24.37
2018-03-23T14:26:26.895Z,26.45
2018-03-23T14:28:56.053Z,26.45
2018-03-23T14:31:24.545Z,26.37
2018-03-23T14:33:53.397Z,28.70
2018-03-23T14:36:24.952Z,23.67
2018-03-23T14:38:53.551Z,24.92
2018-03-23T14:41:21.887Z,24.92
2018-03-23T14:43:50.978Z,28.08
2018-03-23T14:46:19.264Z,27.65
2018-03-23T14:48:47.505Z,22.37
2018-03-23T14:51:17.183Z,28.80
2018-03-23T14:53:46.097Z,23.15
2018-03-23T14:56:15.447Z,26.05
2018-03-23T14:58:49.208Z,24.98
2018-03-23T15:01:17.639Z,25.25
2018-03-23T15:03:45.949Z,24.00
2018-03-23T15:06:14.339Z,20.52
2018-03-23T15:08:43.712Z,21.65
2018-03-23T15:11:13.009Z,22.45
2018-03-23T15:13:41.296Z,19.65
2018-03-23T15:16:09.595Z,19.23
2018-03-23T15:18:38.774Z,22.27
2018-03-23T15:21:07.464Z,21.35
2018-03-23T15:23:36.565Z,22.23
2018-03-23T15:26:05.760Z,18.35
2018-03-23T15:28:34.017Z,19.55
2018-03-23T15:31:02.370Z,18.50
2018-03-23T15:33:30.851Z,19.00
2018-03-23T15:35:59.126Z,14.95
2018-03-23T15:38:27.396Z,15.93
2018-03-23T15:40:55.784Z,16.62
2018-03-23T15:43:24.208Z,19.52
2018-03-23T15:45:53.257Z,16.27
2018-03-23T15:48:22.542Z,15.88
2018-03-23T15:50:50.965Z,18.48
2018-03-23T15:53:19.388Z,13.85
2018-03-23T15:55:47.680Z,14.98
2018-03-23T15:58:16.005Z,16.92
2018-03-23T16:00:44.338Z,16.23
2018-03-23T16:03:12.785Z,17.00
2018-03-23T16:05:41.066Z,15.30
2018-03-23T16:08:09.359Z,16.40
2018-03-23T16:10:37.637Z,17.60
2018-03-23T16:13:05.953Z,18.17
2018-03-23T16:15:34.986Z,17.15
2018-03-23T16:18:03.386Z,17.45
2018-03-23T16:20:31.641Z,17.95
2018-03-23T16:22:59.934Z,19.95
2018-03-23T16:25:28.211Z,18.42
2018-03-23T16:27:56.531Z,17.85
2018-03-23T16:30:25.622Z,15.23
2018-03-23T16:32:54.768Z,18.08
2018-03-23T16:35:23.043Z,23.70
2018-03-23T16:37:51.314Z,17.75
2018-03-23T16:40:19.796Z,15.80
2018-03-23T16:42:48.074Z,16.92
2018-03-23T16:45:16.373Z,19.55
2018-03-23T16:47:44.633Z,17.60
2018-03-23T16:50:13.030Z,15.98
2018-03-23T16:52:41.436Z,17.00
2018-03-23T16:55:11.286Z,17.77
2018-03-23T16:57:39.663Z,16.62
2018-03-23T17:00:07.947Z,16.80
2018-03-23T17:02:36.307Z,18.77
2018-03-23T17:05:04.599Z,19.92
2018-03-23T17:07:32.988Z,18.67
2018-03-23T17:10:01.357Z,19.55
2018-03-23T17:12:29.837Z,18.85
2018-03-23T17:14:58.490Z,18.65
2018-03-23T17:17:26.804Z,17.77
2018-03-23T17:19:55.348Z,18.35
2018-03-23T17:22:23.665Z,16.42
2018-03-23T17:24:51.926Z,17.33
2018-03-23T17:27:20.174Z,16.80
2018-03-23T17:29:48.728Z,17.15
2018-03-23T17:32:17.785Z,19.98
2018-03-23T17:34:46.056Z,17.67
2018-03-23T17:37:14.344Z,14.85
2018-03-23T17:39:42.996Z,16.08
2018-03-23T17:42:11.381Z,19.48
2018-03-23T17:44:39.753Z,14.77
2018-03-23T17:47:08.051Z,15.43
2018-03-23T17:49:36.346Z,17.33
2018-03-23T17:52:06.171Z,14.75
2018-03-23T17:54:35.321Z,15.43
2018-03-23T17:57:03.781Z,16.37
2018-03-23T17:59:32.074Z,20.17
2018-03-23T18:02:00.365Z,22.10
2018-03-23T18:04:28.676Z,20.02
2018-03-23T18:06:57.731Z,17.87
2018-03-23T18:09:26.021Z,20.33
2018-03-23T18:11:54.317Z,17.23
2018-03-23T18:14:23.437Z,19.02
2018-03-23T18:16:52.621Z,20.20
2018-03-23T18:19:21.751Z,20.85
2018-03-23T18:21:50.147Z,19.92
2018-03-23T18:24:18.704Z,17.62
2018-03-23T18:26:47.171Z,20.58
2018-03-23T18:29:15.827Z,24.00
2018-03-23T18:31:44.162Z,21.40
2018-03-23T18:34:12.491Z,19.12
2018-03-23T18:36:41.591Z,20.70
2018-03-23T18:39:10.392Z,19.25
2018-03-23T18:41:38.798Z,21.37
2018-03-23T18:44:07.756Z,20.70
2018-03-23T18:46:36.535Z,20.20
2018-03-23T18:49:05.765Z,21.50
2018-03-23T18:51:34.763Z,21.92
2018-03-23T18:54:03.927Z,25.58
2018-03-23T18:56:32.838Z,27.65
2018-03-23T18:59:01.647Z,42.90
2018-03-23T19:01:30.215Z,52.38
2018-03-23T19:03:59.728Z,32.90
2018-03-23T19:06:29.090Z,28.17
2018-03-23T19:08:58.030Z,26.02
2018-03-23T19:11:26.653Z,27.33
2018-03-23T19:13:56.104Z,29.05
2018-03-23T19:16:24.508Z,26.33
2018-03-23T19:18:53.464Z,24.08
2018-03-23T19:21:22.297Z,27.42
2018-03-23T19:23:52.284Z,26.87
2018-03-23T19:26:20.740Z,25.02
2018-03-23T19:28:50.228Z,26.58
2018-03-23T19:31:18.717Z,24.92
2018-03-23T19:33:47.087Z,27.35
2018-03-23T19:36:15.626Z,31.73
2018-03-23T19:38:45.099Z,27.45
2018-03-23T19:41:13.871Z,31.58
2018-03-23T19:43:42.677Z,29.05
2018-03-23T19:46:11.299Z,29.52
2018-03-23T19:48:39.873Z,24.23
2018-03-23T19:51:08.709Z,26.52
2018-03-23T19:53:37.222Z,30.48
2018-03-23T19:56:05.893Z,29.30
2018-03-23T19:58:34.539Z,25.83
2018-03-23T20:01:02.933Z,27.73
2018-03-23T20:03:31.746Z,25.42
2018-03-23T20:06:00.363Z,23.30
2018-03-23T20:08:29.061Z,25.50
2018-03-23T20:10:58.342Z,26.95
2018-03-23T20:13:27.386Z,23.20
2018-03-23T20:15:56.019Z,28.73
2018-03-23T20:18:24.608Z,23.98
2018-03-23T20:20:58.763Z,30.95
2018-03-23T20:23:27.398Z,26.70
2018-03-23T20:25:56.861Z,27.65
2018-03-23T20:28:30.939Z,28.23
2018-03-23T20:31:00.363Z,27.05
2018-03-23T20:33:31.887Z,29.20
2018-03-23T20:36:01.469Z,26.52
2018-03-23T20:38:31.508Z,24.30
2018-03-23T20:41:00.245Z,24.27
2018-03-23T20:43:28.820Z,26.50
2018-03-23T20:45:57.583Z,26.50
2018-03-23T20:48:25.940Z,27.37
2018-03-23T20:50:54.563Z,31.65
2018-03-23T20:53:23.693Z,28.30
2018-03-23T20:55:52.147Z,33.58
2018-03-23T20:58:22.173Z,28.58
2018-03-23T21:00:50.800Z,30.75
2018-03-23T21:03:22.043Z,28.35
2018-03-23T21:05:51.049Z,38.08
2018-03-23T21:08:20.534Z,36.25
2018-03-23T21:10:49.529Z,33.33
2018-03-23T21:13:18.328Z,35.55
2018-03-23T21:15:47.233Z,34.83
2018-03-23T21:18:16.123Z,36.88
2018-03-23T21:20:47.064Z,39.00
2018-03-23T21:23:16.719Z,39.38
2018-03-23T21:25:45.523Z,33.60
2018-03-23T21:28:14.871Z,34.33
2018-03-23T21:30:43.478Z,34.67
2018-03-23T21:33:12.741Z,33.40
2018-03-23T21:35:42.010Z,34.50
2018-03-23T21:38:11.346Z,35.53
2018-03-23T21:40:40.270Z,31.33
2018-03-23T21:43:09.002Z,36.95
2018-03-23T21:45:37.380Z,37.97
2018-03-23T21:48:06.089Z,34.45
2018-03-23T21:50:34.988Z,37.60
2018-03-23T21:53:03.715Z,39.67
2018-03-23T21:55:32.948Z,36.47
2018-03-23T21:58:01.380Z,43.17
2018-03-23T22:00:29.809Z,40.28
2018-03-23T22:02:58.072Z,39.40
2018-03-23T22:05:26.355Z,37.92
2018-03-23T22:07:54.656Z,41.33
2018-03-23T22:10:22.935Z,39.20
2018-03-23T22:12:51.250Z,38.38
2018-03-23T22:15:20.311Z,37.83
2018-03-23T22:17:48.575Z,42.75
2018-03-23T22:20:16.888Z,34.85
2018-03-23T22:22:45.926Z,38.10
2018-03-23T22:25:14.217Z,40.70
2018-03-23T22:27:42.513Z,34.25
2018-03-23T22:30:10.981Z,38.38
2018-03-23T22:32:39.270Z,40.35
2018-03-23T22:35:07.682Z,41.22
2018-03-23T22:37:35.991Z,41.03
2018-03-23T22:40:04.377Z,39.67
2018-03-23T22:42:32.757Z,47.53
2018-03-23T22:45:01.034Z,41.63
2018-03-23T22:47:29.389Z,43.70
2018-03-23T22:49:57.673Z,46.63
2018-03-23T22:52:25.998Z,46.15
2018-03-23T22:54:54.291Z,49.08
2018-03-23T22:57:22.564Z,46.70
2018-03-23T22:59:50.865Z,46.85
2018-03-23T23:02:19.209Z,47.70
2018-03-23T23:04:48.261Z,49.30
2018-03-23T23:07:17.301Z,48.60
2018-03-23T23:09:45.605Z,46.50
2018-03-23T23:12:13.855Z,53.00
2018-03-23T23:14:42.136Z,48.35
2018-03-23T23:17:10.396Z,45.40
2018-03-23T23:19:39.445Z,48.85
2018-03-23T23:22:07.886Z,54.45
2018-03-23T23:24:36.238Z,52.45
2018-03-23T23:27:05.373Z,50.17
2018-03-23T23:29:33.824Z,49.90
2018-03-23T23:32:02.175Z,50.85
2018-03-23T23:34:31.215Z,62.08
2018-03-23T23:36:59.554Z,53.85
2018-03-23T23:39:28.857Z,51.20
2018-03-23T23:41:57.931Z,55.85
2018-03-23T23:44:26.272Z,53.75
2018-03-23T23:46:54.658Z,48.75
2018-03-23T23:49:23.061Z,52.20
2018-03-23T23:51:52.892Z,47.80
2018-03-23T23:56:56.699Z,45.38
2018-03-23T23:59:25.137Z,43.13
